createdAt,value
2022-09-26T00:00:08.092Z,0.00
2022-09-26T00:01:08.181Z,0.00
2022-09-26T00:02:08.121Z,0.00
2022-09-26T00:03:08.070Z,0.00
2022-09-26T00:04:08.055Z,0.00
2022-09-26T00:05:08.024Z,0.00
2022-09-26T00:06:08.038Z,0.00
2022-09-26T00:07:07.997Z,0.00
2022-09-26T00:08:07.980Z,0.00
2022-09-26T00:09:07.975Z,0.00
2022-09-26T00:10:07.966Z,0.00
2022-09-26T00:11:07.944Z,0.00
2022-09-26T00:12:07.962Z,0.00
2022-09-26T00:13:07.923Z,0.00
2022-09-26T00:14:07.919Z,0.00
2022-09-26T00:15:07.907Z,0.00
2022-09-26T00:16:07.896Z,0.00
2022-09-26T00:17:07.956Z,0.00
2022-09-26T00:18:07.873Z,0.00
2022-09-26T00:19:07.860Z,0.00
2022-09-26T00:20:07.851Z,0.00
2022-09-26T00:21:07.860Z,0.00
2022-09-26T00:22:07.833Z,0.00
2022-09-26T00:23:07.857Z,0.00
2022-09-26T00:24:07.845Z,0.00
2022-09-26T00:25:07.799Z,0.00
2022-09-26T00:26:07.787Z,0.00
2022-09-26T00:27:07.769Z,0.00
2022-09-26T00:28:07.790Z,0.00
2022-09-26T00:29:07.772Z,0.00
2022-09-26T00:30:07.755Z,0.00
2022-09-26T00:31:07.868Z,0.00
2022-09-26T00:32:07.723Z,0.00
2022-09-26T00:33:07.717Z,0.00
2022-09-26T00:34:07.702Z,0.00
2022-09-26T00:35:07.680Z,0.00
2022-09-26T00:36:07.669Z,0.00
2022-09-26T00:37:07.677Z,0.00
2022-09-26T00:38:07.650Z,0.00
2022-09-26T00:39:07.644Z,0.00
2022-09-26T00:40:07.620Z,0.00
2022-09-26T00:41:07.640Z,0.00
2022-09-26T00:42:07.611Z,0.00
2022-09-26T00:43:07.590Z,0.00
2022-09-26T00:44:07.605Z,0.00
2022-09-26T00:45:07.592Z,0.00
2022-09-26T00:46:07.755Z,0.00
2022-09-26T00:47:07.562Z,0.00
2022-09-26T00:48:07.575Z,0.00
2022-09-26T00:49:07.529Z,0.00
2022-09-26T00:50:07.531Z,0.00
2022-09-26T00:51:07.525Z,0.00
2022-09-26T00:52:07.503Z,0.00
2022-09-26T00:53:07.488Z,0.00
2022-09-26T00:54:07.468Z,0.00
2022-09-26T00:55:07.473Z,0.00
2022-09-26T00:56:07.467Z,0.00
2022-09-26T00:57:07.434Z,0.00
2022-09-26T00:58:07.447Z,0.00
2022-09-26T00:59:07.438Z,0.00
2022-09-26T01:00:07.438Z,0.00
2022-09-26T01:01:07.457Z,0.00
2022-09-26T01:02:07.544Z,0.00
2022-09-26T01:03:07.385Z,0.00
2022-09-26T01:04:07.360Z,0.00
2022-09-26T01:05:07.354Z,0.00
2022-09-26T01:06:07.344Z,0.00
2022-09-26T01:07:07.335Z,0.00
2022-09-26T01:08:07.321Z,0.00
2022-09-26T01:09:07.319Z,0.00
2022-09-26T01:10:07.310Z,0.00
2022-09-26T01:11:07.285Z,0.00
2022-09-26T01:12:07.276Z,0.00
2022-09-26T01:13:07.272Z,0.00
2022-09-26T01:14:07.262Z,0.00
2022-09-26T01:15:07.244Z,0.00
2022-09-26T01:16:07.440Z,0.00
2022-09-26T01:17:07.323Z,0.00
2022-09-26T01:18:07.215Z,0.00
2022-09-26T01:19:07.208Z,0.00
2022-09-26T01:20:07.193Z,0.00
2022-09-26T01:21:07.168Z,0.00
2022-09-26T01:22:07.184Z,0.00
2022-09-26T01:23:07.160Z,0.00
2022-09-26T01:24:07.153Z,0.00
2022-09-26T01:25:07.136Z,0.00
2022-09-26T01:26:07.137Z,0.00
2022-09-26T01:27:07.118Z,0.00
2022-09-26T01:28:07.100Z,0.00
2022-09-26T01:29:07.099Z,0.00
2022-09-26T01:30:07.083Z,0.00
2022-09-26T01:31:07.142Z,0.00
2022-09-26T01:32:07.075Z,0.00
2022-09-26T01:33:07.053Z,0.00
2022-09-26T01:34:07.038Z,0.00
2022-09-26T01:35:07.028Z,0.00
2022-09-26T01:36:07.005Z,0.00
2022-09-26T01:37:06.999Z,0.00
2022-09-26T01:38:06.986Z,0.00
2022-09-26T01:39:06.976Z,0.00
2022-09-26T01:40:06.967Z,0.00
2022-09-26T01:41:06.966Z,0.00
2022-09-26T01:42:06.935Z,0.00
2022-09-26T01:43:06.950Z,0.00
2022-09-26T01:44:06.921Z,0.00
2022-09-26T01:45:06.924Z,0.00
2022-09-26T01:46:07.077Z,0.00
2022-09-26T01:47:06.928Z,0.00
2022-09-26T01:48:06.892Z,0.00
2022-09-26T01:49:06.880Z,0.00
2022-09-26T01:50:06.862Z,0.00
2022-09-26T01:51:06.856Z,0.00
2022-09-26T01:52:06.846Z,0.00
2022-09-26T01:53:06.830Z,0.00
2022-09-26T01:54:06.899Z,0.00
2022-09-26T01:55:06.792Z,0.00
2022-09-26T01:56:06.787Z,0.00
2022-09-26T01:57:06.802Z,0.00
2022-09-26T01:58:06.755Z,0.00
2022-09-26T01:59:06.756Z,0.00
2022-09-26T02:00:06.740Z,0.00
2022-09-26T02:01:06.806Z,0.00
2022-09-26T02:02:06.851Z,0.00
2022-09-26T02:03:06.716Z,0.00
2022-09-26T02:04:06.711Z,0.00
2022-09-26T02:05:06.697Z,0.00
2022-09-26T02:06:06.676Z,0.00
2022-09-26T02:07:06.683Z,0.00
2022-09-26T02:08:06.659Z,0.00
2022-09-26T02:09:06.681Z,0.00
2022-09-26T02:10:06.631Z,0.00
2022-09-26T02:11:06.618Z,0.00
2022-09-26T02:12:06.605Z,0.00
2022-09-26T02:13:06.607Z,0.00
2022-09-26T02:14:06.594Z,0.00
2022-09-26T02:15:06.578Z,0.00
2022-09-26T02:16:06.620Z,0.00
2022-09-26T02:17:06.559Z,0.00
2022-09-26T02:18:06.535Z,0.00
2022-09-26T02:19:06.577Z,0.00
2022-09-26T02:20:06.657Z,0.00
2022-09-26T02:21:06.504Z,0.00
2022-09-26T02:22:06.586Z,0.00
2022-09-26T02:23:06.482Z,0.00
2022-09-26T02:24:06.469Z,0.00
2022-09-26T02:25:06.482Z,0.00
2022-09-26T02:26:06.463Z,0.00
2022-09-26T02:27:06.476Z,0.00
2022-09-26T02:28:06.445Z,0.00
2022-09-26T02:29:06.498Z,0.00
2022-09-26T02:30:06.408Z,0.00
2022-09-26T02:31:06.393Z,0.00
2022-09-26T02:32:06.487Z,0.00
2022-09-26T02:33:06.380Z,0.00
2022-09-26T02:34:06.377Z,0.00
2022-09-26T02:35:06.353Z,0.00
2022-09-26T02:36:06.371Z,0.00
2022-09-26T02:37:06.333Z,0.00
2022-09-26T02:38:06.327Z,0.00
2022-09-26T02:39:06.408Z,0.00
2022-09-26T02:40:06.301Z,0.00
2022-09-26T02:41:06.280Z,0.00
2022-09-26T02:42:06.268Z,0.00
2022-09-26T02:43:06.255Z,0.00
2022-09-26T02:44:06.246Z,0.00
2022-09-26T02:45:06.259Z,0.00
2022-09-26T02:46:06.304Z,0.00
2022-09-26T02:47:06.220Z,0.00
2022-09-26T02:48:06.208Z,0.00
2022-09-26T02:49:06.259Z,0.00
2022-09-26T02:50:06.197Z,0.00
2022-09-26T02:51:06.173Z,0.00
2022-09-26T02:52:06.212Z,0.00
2022-09-26T02:53:06.151Z,0.00
2022-09-26T02:54:06.151Z,0.00
2022-09-26T02:55:06.120Z,0.00
2022-09-26T02:56:06.129Z,0.00
2022-09-26T02:57:06.118Z,0.00
2022-09-26T02:58:06.090Z,0.00
2022-09-26T02:59:06.151Z,0.00
2022-09-26T03:00:06.085Z,0.00
2022-09-26T03:01:06.143Z,0.00
2022-09-26T03:02:06.049Z,0.00
2022-09-26T03:03:06.060Z,0.00
2022-09-26T03:04:06.035Z,0.00
2022-09-26T03:05:06.133Z,0.00
2022-09-26T03:06:06.022Z,0.00
2022-09-26T03:07:06.004Z,0.00
2022-09-26T03:08:06.010Z,0.00
2022-09-26T03:09:06.043Z,0.00
2022-09-26T03:10:05.959Z,0.00
2022-09-26T03:11:05.964Z,0.00
2022-09-26T03:12:05.937Z,0.00
2022-09-26T03:13:05.946Z,0.00
2022-09-26T03:14:05.923Z,0.00
2022-09-26T03:15:05.904Z,0.00
2022-09-26T03:16:05.991Z,0.00
2022-09-26T03:17:05.886Z,0.00
2022-09-26T03:18:05.876Z,0.00
2022-09-26T03:19:05.939Z,0.00
2022-09-26T03:20:05.844Z,0.00
2022-09-26T03:21:05.853Z,0.00
2022-09-26T03:22:05.842Z,0.00
2022-09-26T03:23:05.815Z,0.00
2022-09-26T03:24:05.825Z,0.00
2022-09-26T03:25:05.799Z,0.00
2022-09-26T03:26:05.776Z,0.00
2022-09-26T03:27:05.779Z,0.00
2022-09-26T03:28:05.771Z,0.00
2022-09-26T03:29:05.821Z,0.00
2022-09-26T03:30:05.755Z,0.00
2022-09-26T03:31:05.735Z,0.00
2022-09-26T03:32:05.785Z,0.00
2022-09-26T03:33:05.702Z,0.00
2022-09-26T03:34:05.687Z,0.00
2022-09-26T03:35:05.689Z,0.00
2022-09-26T03:36:05.670Z,0.00
2022-09-26T03:37:05.669Z,0.00
2022-09-26T03:38:05.655Z,0.00
2022-09-26T03:39:05.641Z,0.00
2022-09-26T03:40:05.733Z,0.00
2022-09-26T03:41:05.620Z,0.00
2022-09-26T03:42:05.627Z,0.00
2022-09-26T03:43:05.588Z,0.00
2022-09-26T03:44:05.577Z,0.00
2022-09-26T03:45:05.569Z,0.00
2022-09-26T03:46:05.627Z,0.00
2022-09-26T03:47:05.541Z,0.00
2022-09-26T03:48:05.538Z,0.00
2022-09-26T03:49:05.539Z,0.00
2022-09-26T03:50:05.514Z,0.00
2022-09-26T03:51:05.502Z,0.00
2022-09-26T03:52:05.507Z,0.00
2022-09-26T03:53:05.474Z,0.00
2022-09-26T03:54:05.484Z,0.00
2022-09-26T03:55:05.457Z,0.00
2022-09-26T03:56:05.470Z,0.00
2022-09-26T03:57:05.455Z,0.00
2022-09-26T03:58:05.431Z,0.00
2022-09-26T03:59:05.506Z,0.00
2022-09-26T04:00:05.416Z,0.00
2022-09-26T04:01:05.469Z,0.00
2022-09-26T04:02:05.444Z,0.00
2022-09-26T04:03:05.375Z,0.00
2022-09-26T04:04:05.369Z,0.00
2022-09-26T04:05:05.352Z,0.00
2022-09-26T04:06:05.333Z,0.00
2022-09-26T04:07:05.349Z,0.00
2022-09-26T04:08:05.311Z,0.00
2022-09-26T04:09:05.445Z,0.00
2022-09-26T04:10:05.298Z,0.00
2022-09-26T04:11:05.281Z,0.00
2022-09-26T04:12:05.298Z,0.00
2022-09-26T04:13:05.268Z,0.00
2022-09-26T04:14:05.257Z,0.00
2022-09-26T04:15:05.255Z,0.00
2022-09-26T04:16:05.307Z,0.00
2022-09-26T04:17:05.208Z,0.00
2022-09-26T04:18:05.214Z,0.00
2022-09-26T04:19:05.198Z,0.00
2022-09-26T04:20:05.221Z,0.00
2022-09-26T04:21:09.793Z,0.00
2022-09-26T04:22:05.161Z,0.00
2022-09-26T04:23:05.141Z,0.00
2022-09-26T04:24:05.160Z,0.00
2022-09-26T04:25:05.120Z,0.00
2022-09-26T04:26:05.144Z,0.00
2022-09-26T04:27:05.109Z,0.00
2022-09-26T04:28:05.114Z,0.00
2022-09-26T04:29:05.092Z,0.00
2022-09-26T04:30:05.070Z,0.00
2022-09-26T04:31:05.217Z,0.00
2022-09-26T04:32:05.124Z,0.00
2022-09-26T04:33:05.038Z,0.00
2022-09-26T04:34:05.064Z,0.00
2022-09-26T04:35:05.021Z,0.00
2022-09-26T04:36:05.016Z,0.00
2022-09-26T04:37:04.999Z,0.00
2022-09-26T04:38:05.011Z,0.00
2022-09-26T04:39:04.971Z,0.00
2022-09-26T04:40:04.989Z,0.00
2022-09-26T04:41:05.021Z,0.00
2022-09-26T04:42:04.940Z,0.00
2022-09-26T04:43:04.944Z,0.00
2022-09-26T04:44:04.967Z,0.00
2022-09-26T04:45:04.917Z,0.00
2022-09-26T04:46:04.998Z,0.00
2022-09-26T04:47:04.876Z,0.00
2022-09-26T04:48:04.896Z,0.00
2022-09-26T04:49:04.867Z,0.00
2022-09-26T04:50:04.854Z,0.00
2022-09-26T04:51:04.839Z,0.00
2022-09-26T04:52:04.826Z,0.00
2022-09-26T04:53:04.837Z,0.00
2022-09-26T04:54:04.806Z,0.00
2022-09-26T04:55:04.811Z,0.00
2022-09-26T04:56:04.791Z,0.00
2022-09-26T04:57:04.802Z,0.00
2022-09-26T04:58:04.781Z,0.00
2022-09-26T04:59:04.745Z,0.00
2022-09-26T05:00:04.759Z,0.00
2022-09-26T05:01:04.888Z,0.00
2022-09-26T05:02:04.783Z,0.00
2022-09-26T05:03:04.711Z,0.00
2022-09-26T05:04:04.725Z,0.00
2022-09-26T05:05:04.710Z,0.00
2022-09-26T05:06:04.702Z,0.00
2022-09-26T05:07:04.686Z,0.00
2022-09-26T05:08:04.661Z,0.00
2022-09-26T05:09:04.658Z,0.00
2022-09-26T05:10:04.628Z,0.00
2022-09-26T05:11:04.639Z,0.00
2022-09-26T05:12:04.625Z,0.00
2022-09-26T05:13:04.636Z,0.00
2022-09-26T05:14:04.584Z,0.00
2022-09-26T05:15:04.609Z,0.00
2022-09-26T05:16:04.659Z,0.00
2022-09-26T05:17:04.569Z,0.00
2022-09-26T05:18:04.533Z,0.00
2022-09-26T05:19:04.598Z,0.00
2022-09-26T05:20:04.551Z,0.00
2022-09-26T05:21:04.531Z,5.62
2022-09-26T05:22:04.493Z,5.62
2022-09-26T05:23:04.482Z,5.62
2022-09-26T05:24:04.492Z,5.62
2022-09-26T05:25:04.463Z,5.62
2022-09-26T05:26:04.479Z,5.62
2022-09-26T05:27:04.454Z,5.62
2022-09-26T05:28:04.422Z,5.62
2022-09-26T05:29:08.522Z,5.62
2022-09-26T05:30:04.433Z,5.62
2022-09-26T05:31:04.501Z,5.62
2022-09-26T05:32:04.504Z,5.62
2022-09-26T05:33:04.366Z,11.25
2022-09-26T05:34:04.409Z,11.25
2022-09-26T05:35:04.369Z,11.25
2022-09-26T05:36:04.372Z,11.25
2022-09-26T05:37:04.321Z,11.25
2022-09-26T05:38:04.329Z,11.25
2022-09-26T05:39:04.317Z,11.25
2022-09-26T05:40:04.336Z,11.25
2022-09-26T05:41:04.331Z,16.88
2022-09-26T05:42:04.280Z,16.88
2022-09-26T05:43:04.263Z,16.88
2022-09-26T05:44:04.253Z,16.88
2022-09-26T05:45:04.352Z,16.88
2022-09-26T05:46:04.237Z,22.50
2022-09-26T05:47:04.343Z,22.50
2022-09-26T05:48:04.233Z,22.50
2022-09-26T05:49:04.228Z,22.50
2022-09-26T05:50:04.195Z,28.12
2022-09-26T05:51:04.175Z,28.12
2022-09-26T05:52:04.192Z,28.12
2022-09-26T05:53:04.163Z,28.12
2022-09-26T05:54:04.158Z,33.75
2022-09-26T05:55:04.145Z,33.75
2022-09-26T05:56:04.116Z,33.75
2022-09-26T05:57:04.158Z,33.75
2022-09-26T05:58:04.135Z,33.75
2022-09-26T05:59:04.099Z,39.38
2022-09-26T06:00:04.177Z,39.38
2022-09-26T06:01:04.237Z,39.38
2022-09-26T06:02:04.120Z,39.38
2022-09-26T06:03:04.068Z,39.38
2022-09-26T06:04:04.092Z,33.75
2022-09-26T06:05:04.904Z,33.75
2022-09-26T06:06:04.003Z,33.75
2022-09-26T06:07:04.007Z,39.38
2022-09-26T06:08:04.078Z,39.38
2022-09-26T06:09:03.983Z,39.38
2022-09-26T06:10:04.021Z,39.38
2022-09-26T06:11:03.964Z,39.38
2022-09-26T06:12:03.989Z,39.38
2022-09-26T06:13:03.966Z,39.38
2022-09-26T06:14:03.919Z,39.38
2022-09-26T06:15:03.898Z,39.38
2022-09-26T06:16:03.961Z,39.38
2022-09-26T06:17:03.886Z,39.38
2022-09-26T06:18:03.887Z,45.00
2022-09-26T06:19:03.856Z,45.00
2022-09-26T06:20:03.864Z,45.00
2022-09-26T06:21:03.844Z,45.00
2022-09-26T06:22:03.858Z,50.62
2022-09-26T06:23:03.833Z,50.62
2022-09-26T06:24:03.824Z,50.62
2022-09-26T06:25:04.914Z,50.62
2022-09-26T06:26:03.793Z,50.62
2022-09-26T06:27:03.805Z,56.25
2022-09-26T06:28:03.772Z,56.25
2022-09-26T06:29:03.754Z,61.88
2022-09-26T06:30:03.754Z,61.88
2022-09-26T06:31:03.739Z,67.50
2022-09-26T06:32:03.862Z,67.50
2022-09-26T06:33:03.704Z,73.12
2022-09-26T06:34:03.694Z,73.12
2022-09-26T06:35:03.702Z,78.75
2022-09-26T06:36:03.740Z,78.75
2022-09-26T06:37:03.678Z,78.75
2022-09-26T06:38:03.649Z,84.38
2022-09-26T06:39:03.642Z,84.38
2022-09-26T06:40:03.778Z,84.38
2022-09-26T06:41:03.740Z,84.38
2022-09-26T06:42:03.823Z,84.38
2022-09-26T06:43:03.617Z,84.38
2022-09-26T06:44:03.614Z,90.00
2022-09-26T06:45:03.585Z,90.00
2022-09-26T06:46:03.557Z,90.00
2022-09-26T06:47:03.598Z,95.62
2022-09-26T06:48:03.547Z,95.62
2022-09-26T06:49:03.594Z,101.25
2022-09-26T06:50:04.299Z,101.25
2022-09-26T06:51:04.309Z,106.88
2022-09-26T06:52:03.520Z,106.88
2022-09-26T06:53:11.871Z,106.88
2022-09-26T06:54:04.479Z,106.88
2022-09-26T06:55:03.579Z,106.88
2022-09-26T06:56:03.471Z,101.25
2022-09-26T06:57:03.438Z,101.25
2022-09-26T06:58:03.483Z,101.25
2022-09-26T06:59:03.415Z,106.88
2022-09-26T07:00:03.402Z,106.88
2022-09-26T07:01:03.542Z,112.50
2022-09-26T07:02:03.566Z,118.12
2022-09-26T07:03:03.363Z,123.75
2022-09-26T07:04:03.375Z,129.38
2022-09-26T07:05:03.353Z,135.00
2022-09-26T07:06:03.338Z,135.00
2022-09-26T07:07:03.393Z,135.00
2022-09-26T07:08:03.333Z,140.62
2022-09-26T07:09:06.395Z,140.62
2022-09-26T07:10:04.279Z,146.25
2022-09-26T07:11:28.182Z,151.88
2022-09-26T07:12:17.703Z,157.50
2022-09-26T07:13:04.264Z,163.12
2022-09-26T07:14:03.274Z,168.75
2022-09-26T07:15:03.271Z,174.38
2022-09-26T07:16:03.307Z,180.00
2022-09-26T07:17:03.242Z,185.62
2022-09-26T07:18:03.270Z,185.62
2022-09-26T07:19:03.198Z,191.25
2022-09-26T07:20:03.167Z,191.25
2022-09-26T07:21:03.172Z,191.25
2022-09-26T07:22:03.152Z,191.25
2022-09-26T07:23:03.152Z,191.25
2022-09-26T07:24:03.160Z,196.88
2022-09-26T07:25:03.143Z,196.88
2022-09-26T07:26:03.229Z,196.88
2022-09-26T07:27:03.110Z,196.88
2022-09-26T07:28:03.077Z,196.88
2022-09-26T07:29:03.109Z,202.50
2022-09-26T07:30:03.072Z,202.50
2022-09-26T07:31:03.165Z,202.50
2022-09-26T07:32:03.082Z,202.50
2022-09-26T07:33:03.045Z,202.50
2022-09-26T07:34:03.021Z,196.88
2022-09-26T07:35:03.037Z,196.88
2022-09-26T07:36:05.438Z,191.25
2022-09-26T07:37:02.977Z,185.62
2022-09-26T07:38:02.975Z,180.00
2022-09-26T07:39:02.952Z,174.38
2022-09-26T07:40:03.000Z,174.38
2022-09-26T07:41:03.018Z,174.38
2022-09-26T07:42:03.012Z,174.38
2022-09-26T07:43:19.651Z,168.75
2022-09-26T07:45:01.864Z,174.38
2022-09-26T07:46:03.893Z,168.75
2022-09-26T07:47:03.015Z,174.38
2022-09-26T07:48:03.786Z,168.75
2022-09-26T07:49:02.886Z,174.38
2022-09-26T07:50:02.852Z,174.38
2022-09-26T07:51:08.414Z,180.00
2022-09-26T07:52:03.815Z,180.00
2022-09-26T07:53:02.810Z,185.62
2022-09-26T07:54:02.929Z,185.62
2022-09-26T07:55:02.805Z,191.25
2022-09-26T07:56:02.787Z,191.25
2022-09-26T07:57:02.743Z,196.88
2022-09-26T07:58:02.740Z,202.50
2022-09-26T07:59:02.768Z,202.50
2022-09-26T08:00:02.727Z,208.12
2022-09-26T08:01:02.697Z,208.12
2022-09-26T08:02:02.799Z,213.75
2022-09-26T08:03:02.715Z,213.75
2022-09-26T08:04:02.710Z,219.38
2022-09-26T08:05:02.679Z,225.00
2022-09-26T08:06:02.653Z,230.62
2022-09-26T08:07:02.660Z,236.25
2022-09-26T08:08:02.616Z,236.25
2022-09-26T08:09:02.641Z,241.88
2022-09-26T08:10:02.831Z,241.88
2022-09-26T08:11:04.268Z,247.50
2022-09-26T08:12:02.667Z,247.50
2022-09-26T08:13:02.592Z,253.12
2022-09-26T08:14:02.591Z,253.12
2022-09-26T08:15:02.645Z,253.12
2022-09-26T08:16:02.699Z,253.12
2022-09-26T08:17:02.530Z,253.12
2022-09-26T08:18:02.564Z,253.12
2022-09-26T08:19:02.511Z,253.12
2022-09-26T08:20:02.486Z,253.12
2022-09-26T08:21:02.509Z,253.12
2022-09-26T08:22:02.527Z,247.50
2022-09-26T08:23:02.509Z,247.50
2022-09-26T08:24:02.513Z,241.88
2022-09-26T08:25:02.434Z,236.25
2022-09-26T08:26:02.425Z,236.25
2022-09-26T08:27:02.458Z,230.62
2022-09-26T08:28:03.311Z,219.38
2022-09-26T08:29:02.449Z,213.75
2022-09-26T08:30:02.417Z,208.12
2022-09-26T08:31:03.352Z,196.88
2022-09-26T08:32:03.322Z,191.25
2022-09-26T08:33:02.360Z,185.62
2022-09-26T08:34:02.452Z,180.00
2022-09-26T08:35:02.817Z,174.38
2022-09-26T08:36:02.390Z,163.12
2022-09-26T08:37:02.417Z,151.88
2022-09-26T08:38:02.369Z,146.25
2022-09-26T08:39:02.276Z,140.62
2022-09-26T08:40:02.272Z,135.00
2022-09-26T08:41:02.403Z,129.38
2022-09-26T08:42:02.794Z,129.38
2022-09-26T08:43:02.407Z,129.38
2022-09-26T08:44:02.250Z,123.75
2022-09-26T08:45:02.216Z,123.75
2022-09-26T08:46:02.327Z,123.75
2022-09-26T08:47:02.289Z,123.75
2022-09-26T08:48:02.183Z,129.38
2022-09-26T08:49:02.405Z,129.38
2022-09-26T08:50:02.162Z,135.00
2022-09-26T08:51:02.138Z,135.00
2022-09-26T08:52:02.148Z,140.62
2022-09-26T08:53:02.132Z,140.62
2022-09-26T08:54:02.101Z,146.25
2022-09-26T08:55:02.109Z,146.25
2022-09-26T08:56:02.098Z,146.25
2022-09-26T08:57:02.099Z,146.25
2022-09-26T08:58:02.073Z,146.25
2022-09-26T08:59:02.067Z,146.25
2022-09-26T09:00:02.174Z,146.25
2022-09-26T09:01:02.044Z,146.25
2022-09-26T09:02:02.113Z,146.25
2022-09-26T09:03:02.077Z,140.62
2022-09-26T09:04:01.985Z,140.62
2022-09-26T09:05:01.982Z,140.62
2022-09-26T09:06:02.014Z,140.62
2022-09-26T09:07:01.967Z,140.62
2022-09-26T09:08:01.949Z,140.62
2022-09-26T09:09:01.954Z,146.25
2022-09-26T09:10:01.915Z,146.25
2022-09-26T09:11:01.938Z,146.25
2022-09-26T09:12:02.057Z,146.25
2022-09-26T09:13:01.891Z,140.62
2022-09-26T09:14:01.890Z,135.00
2022-09-26T09:15:24.141Z,129.38
2022-09-26T09:16:03.007Z,123.75
2022-09-26T09:17:01.856Z,123.75
2022-09-26T09:18:01.853Z,123.75
2022-09-26T09:19:01.827Z,129.38
2022-09-26T09:20:01.859Z,129.38
2022-09-26T09:21:01.820Z,129.38
2022-09-26T09:22:01.807Z,140.62
2022-09-26T09:23:01.899Z,129.38
2022-09-26T09:24:01.767Z,123.75
2022-09-26T09:25:01.789Z,118.12
2022-09-26T09:28:08.096Z,106.88
2022-09-26T09:29:02.723Z,106.88
2022-09-26T09:30:03.227Z,106.88
2022-09-26T09:31:02.027Z,106.88
2022-09-26T09:32:01.717Z,101.25
2022-09-26T09:33:01.674Z,95.62
2022-09-26T09:34:01.681Z,95.62
2022-09-26T09:35:01.649Z,90.00
2022-09-26T09:36:01.640Z,90.00
2022-09-26T09:37:01.617Z,90.00
2022-09-26T09:38:01.601Z,84.38
2022-09-26T09:39:01.619Z,84.38
2022-09-26T09:40:01.588Z,84.38
2022-09-26T09:41:01.687Z,90.00
2022-09-26T09:42:01.595Z,90.00
2022-09-26T09:43:01.554Z,95.62
2022-09-26T09:44:01.539Z,95.62
2022-09-26T09:45:01.529Z,101.25
2022-09-26T09:46:01.658Z,106.88
2022-09-26T09:47:01.604Z,118.12
2022-09-26T09:48:01.529Z,123.75
2022-09-26T09:49:01.496Z,129.38
2022-09-26T09:50:01.489Z,135.00
2022-09-26T09:51:02.297Z,140.62
2022-09-26T09:52:01.462Z,140.62
2022-09-26T09:53:01.447Z,140.62
2022-09-26T09:54:01.435Z,135.00
2022-09-26T09:55:01.419Z,123.75
2022-09-26T09:56:01.410Z,123.75
2022-09-26T09:57:01.397Z,123.75
2022-09-26T09:58:01.851Z,129.38
2022-09-26T09:59:01.403Z,129.38
2022-09-26T10:00:02.372Z,129.38
2022-09-26T10:01:01.345Z,135.00
2022-09-26T10:02:01.343Z,135.00
2022-09-26T10:03:01.547Z,140.62
2022-09-26T10:04:01.351Z,140.62
2022-09-26T10:05:01.317Z,140.62
2022-09-26T10:06:01.804Z,140.62
2022-09-26T10:07:01.283Z,135.00
2022-09-26T10:08:01.288Z,135.00
2022-09-26T10:09:35.826Z,135.00
2022-09-26T10:10:02.252Z,129.38
2022-09-26T10:11:01.319Z,129.38
2022-09-26T10:12:01.227Z,129.38
2022-09-26T10:13:01.243Z,129.38
2022-09-26T10:14:01.223Z,129.38
2022-09-26T10:15:01.189Z,129.38
2022-09-26T10:16:01.300Z,135.00
2022-09-26T10:17:01.816Z,135.00
2022-09-26T10:18:23.472Z,140.62
2022-09-26T10:19:03.561Z,140.62
2022-09-26T10:20:01.152Z,140.62
2022-09-26T10:21:01.119Z,140.62
2022-09-26T10:22:01.107Z,146.25
2022-09-26T10:23:01.092Z,146.25
2022-09-26T10:24:01.084Z,151.88
2022-09-26T10:25:01.070Z,151.88
2022-09-26T10:26:01.069Z,151.88
2022-09-26T10:27:01.097Z,157.50
2022-09-26T10:28:01.041Z,157.50
2022-09-26T10:29:01.036Z,157.50
2022-09-26T10:30:01.009Z,163.12
2022-09-26T10:31:01.190Z,168.75
2022-09-26T10:32:00.992Z,168.75
2022-09-26T10:33:00.999Z,174.38
2022-09-26T10:34:01.021Z,180.00
2022-09-26T10:35:00.989Z,180.00
2022-09-26T10:36:00.972Z,174.38
2022-09-26T10:37:00.986Z,174.38
2022-09-26T10:38:00.926Z,174.38
2022-09-26T10:39:00.919Z,180.00
2022-09-26T10:40:00.891Z,180.00
2022-09-26T10:41:00.966Z,180.00
2022-09-26T10:42:00.905Z,180.00
2022-09-26T10:43:00.883Z,191.25
2022-09-26T10:44:00.929Z,191.25
2022-09-26T10:45:00.858Z,191.25
2022-09-26T10:46:00.906Z,191.25
2022-09-26T10:47:00.882Z,185.62
2022-09-26T10:48:00.819Z,185.62
2022-09-26T10:49:00.791Z,180.00
2022-09-26T10:50:00.791Z,180.00
2022-09-26T10:51:00.784Z,180.00
2022-09-26T10:52:01.503Z,174.38
2022-09-26T10:53:00.754Z,168.75
2022-09-26T10:54:00.729Z,174.38
2022-09-26T10:55:00.729Z,174.38
2022-09-26T10:56:00.756Z,180.00
2022-09-26T10:57:00.732Z,185.62
2022-09-26T10:58:00.696Z,191.25
2022-09-26T10:59:00.670Z,196.88
2022-09-26T11:00:00.672Z,208.12
2022-09-26T11:01:00.697Z,219.38
2022-09-26T11:02:00.798Z,213.75
2022-09-26T11:03:00.640Z,202.50
2022-09-26T11:04:00.704Z,191.25
2022-09-26T11:05:00.616Z,196.88
2022-09-26T11:06:00.595Z,185.62
2022-09-26T11:07:00.611Z,168.75
2022-09-26T11:08:00.604Z,151.88
2022-09-26T11:09:00.576Z,146.25
2022-09-26T11:10:00.558Z,146.25
2022-09-26T11:11:00.540Z,151.88
2022-09-26T11:12:00.552Z,168.75
2022-09-26T11:13:00.524Z,180.00
2022-09-26T11:14:00.596Z,185.62
2022-09-26T11:15:00.594Z,185.62
2022-09-26T11:16:00.675Z,185.62
2022-09-26T11:17:00.495Z,191.25
2022-09-26T11:18:00.504Z,196.88
2022-09-26T11:19:00.466Z,208.12
2022-09-26T11:20:00.436Z,213.75
2022-09-26T11:21:00.442Z,225.00
2022-09-26T11:22:05.785Z,225.00
2022-09-26T11:23:01.418Z,225.00
2022-09-26T11:24:00.445Z,236.25
2022-09-26T11:25:00.388Z,247.50
2022-09-26T11:26:00.397Z,247.50
2022-09-26T11:27:00.374Z,253.12
2022-09-26T11:28:00.400Z,264.38
2022-09-26T11:29:00.342Z,270.00
2022-09-26T11:30:00.326Z,270.00
2022-09-26T11:31:00.442Z,270.00
2022-09-26T11:32:00.573Z,264.38
2022-09-26T11:33:00.289Z,258.75
2022-09-26T11:34:00.302Z,258.75
2022-09-26T11:35:00.303Z,258.75
2022-09-26T11:36:00.270Z,253.12
2022-09-26T11:37:00.288Z,253.12
2022-09-26T11:38:00.249Z,247.50
2022-09-26T11:39:00.228Z,241.88
2022-09-26T11:40:00.251Z,236.25
2022-09-26T11:41:00.330Z,230.62
2022-09-26T11:42:00.187Z,219.38
2022-09-26T11:43:00.195Z,213.75
2022-09-26T11:44:00.186Z,208.12
2022-09-26T11:45:00.197Z,202.50
2022-09-26T11:46:00.252Z,202.50
2022-09-26T11:47:00.127Z,196.88
2022-09-26T11:48:00.141Z,196.88
2022-09-26T11:49:00.112Z,196.88
2022-09-26T11:50:00.193Z,202.50
2022-09-26T11:51:00.100Z,202.50
2022-09-26T11:52:00.083Z,208.12
2022-09-26T11:53:00.085Z,208.12
2022-09-26T11:54:00.048Z,208.12
2022-09-26T11:55:00.069Z,208.12
2022-09-26T11:56:00.098Z,213.75
2022-09-26T11:57:00.048Z,219.38
2022-09-26T11:58:03.235Z,225.00
2022-09-26T11:59:00.068Z,230.62
2022-09-26T12:00:00.014Z,241.88
2022-09-26T12:00:59.979Z,247.50
2022-09-26T12:01:59.993Z,247.50
2022-09-26T12:03:00.073Z,241.88
2022-09-26T12:04:00.161Z,236.25
2022-09-26T12:04:59.943Z,225.00
2022-09-26T12:05:59.923Z,219.38
2022-09-26T12:06:59.933Z,213.75
2022-09-26T12:07:59.929Z,208.12
2022-09-26T12:08:59.908Z,208.12
2022-09-26T12:09:59.896Z,208.12
2022-09-26T12:10:59.911Z,208.12
2022-09-26T12:11:59.882Z,208.12
2022-09-26T12:12:59.879Z,213.75
2022-09-26T12:13:59.852Z,213.75
2022-09-26T12:14:59.827Z,213.75
2022-09-26T12:15:59.904Z,213.75
2022-09-26T12:16:59.814Z,208.12
2022-09-26T12:17:59.781Z,202.50
2022-09-26T12:18:59.800Z,202.50
2022-09-26T12:19:59.774Z,196.88
2022-09-26T12:20:59.754Z,202.50
2022-09-26T12:21:59.750Z,202.50
2022-09-26T12:22:59.758Z,208.12
2022-09-26T12:23:59.725Z,208.12
2022-09-26T12:24:59.726Z,219.38
2022-09-26T12:25:59.696Z,219.38
2022-09-26T12:26:59.696Z,219.38
2022-09-26T12:27:59.735Z,225.00
2022-09-26T12:28:59.677Z,225.00
2022-09-26T12:29:59.663Z,230.62
2022-09-26T12:30:59.703Z,236.25
2022-09-26T12:31:59.670Z,241.88
2022-09-26T12:32:59.639Z,247.50
2022-09-26T12:33:59.646Z,253.12
2022-09-26T12:34:59.608Z,258.75
2022-09-26T12:35:59.595Z,258.75
2022-09-26T12:36:59.608Z,258.75
2022-09-26T12:37:59.587Z,264.38
2022-09-26T12:38:59.586Z,264.38
2022-09-26T12:39:59.544Z,264.38
2022-09-26T12:40:59.615Z,264.38
2022-09-26T12:41:59.526Z,264.38
2022-09-26T12:42:59.527Z,264.38
2022-09-26T12:43:59.533Z,264.38
2022-09-26T12:44:59.492Z,258.75
2022-09-26T12:45:59.537Z,258.75
2022-09-26T12:46:59.564Z,253.12
2022-09-26T12:47:59.495Z,253.12
2022-09-26T12:48:59.453Z,258.75
2022-09-26T12:49:59.421Z,258.75
2022-09-26T12:50:59.421Z,253.12
2022-09-26T12:51:59.436Z,253.12
2022-09-26T12:52:59.404Z,247.50
2022-09-26T12:53:59.490Z,247.50
2022-09-26T12:54:59.368Z,241.88